createdAt,value
2019-06-15T00:00:01.696Z,11.47
2019-06-15T00:02:30.322Z,8.40
2019-06-15T00:04:58.776Z,6.47
2019-06-15T00:07:27.259Z,12.40
2019-06-15T00:09:55.694Z,9.17
2019-06-15T00:12:24.122Z,6.20
2019-06-15T00:14:52.561Z,7.17
2019-06-15T00:17:21.012Z,4.97
2019-06-15T00:19:49.524Z,8.13
2019-06-15T00:22:18.009Z,4.63
2019-06-15T00:24:46.458Z,9.90
2019-06-15T00:27:14.882Z,6.20
2019-06-15T00:29:43.317Z,6.20
2019-06-15T00:32:11.751Z,7.40
2019-06-15T00:34:40.191Z,11.20
2019-06-15T00:37:08.618Z,11.03
2019-06-15T00:39:37.059Z,6.67
2019-06-15T00:42:05.504Z,4.33
2019-06-15T00:44:33.963Z,4.27
2019-06-15T00:47:02.402Z,14.53
2019-06-15T00:49:30.842Z,6.53
2019-06-15T00:51:59.258Z,6.50
2019-06-15T00:54:27.725Z,5.77
2019-06-15T00:56:56.318Z,7.13
2019-06-15T00:59:24.785Z,4.57
2019-06-15T01:01:53.208Z,4.40
2019-06-15T01:04:21.632Z,5.00
2019-06-15T01:06:50.069Z,6.43
2019-06-15T01:09:18.507Z,6.33
2019-06-15T01:11:46.934Z,8.40
2019-06-15T01:14:15.366Z,5.97
2019-06-15T01:16:43.869Z,5.37
2019-06-15T01:19:12.376Z,6.70
2019-06-15T01:21:40.820Z,7.60
2019-06-15T01:24:09.237Z,17.23
2019-06-15T01:26:37.679Z,7.10
2019-06-15T01:29:06.116Z,5.27
2019-06-15T01:31:34.553Z,5.20
2019-06-15T01:34:03.138Z,5.80
2019-06-15T01:36:31.638Z,7.20
2019-06-15T01:39:00.077Z,11.40
2019-06-15T01:41:29.911Z,4.03
2019-06-15T01:43:58.363Z,12.33
2019-06-15T01:46:26.866Z,9.57
2019-06-15T01:48:55.297Z,10.90
2019-06-15T01:51:23.735Z,7.17
2019-06-15T01:53:52.165Z,11.80
2019-06-15T01:56:20.601Z,10.63
2019-06-15T01:58:49.145Z,6.43
2019-06-15T02:01:17.592Z,5.33
2019-06-15T02:03:46.025Z,7.23
2019-06-15T02:06:14.455Z,5.27
2019-06-15T02:08:42.878Z,6.80
2019-06-15T02:11:11.446Z,5.80
2019-06-15T02:13:39.886Z,10.13
2019-06-15T02:16:08.340Z,6.33
2019-06-15T02:18:36.775Z,8.37
2019-06-15T02:21:05.232Z,11.53
2019-06-15T02:23:33.724Z,6.93
2019-06-15T02:26:02.217Z,8.33
2019-06-15T02:28:30.738Z,4.20
2019-06-15T02:30:59.154Z,4.70
2019-06-15T02:33:27.586Z,6.37
2019-06-15T02:35:56.032Z,6.37
2019-06-15T02:38:24.533Z,8.63
2019-06-15T02:40:52.955Z,5.80
2019-06-15T02:43:21.638Z,4.97
2019-06-15T02:45:50.065Z,15.53
2019-06-15T02:48:18.501Z,11.97
2019-06-15T02:50:46.929Z,5.83
2019-06-15T02:53:15.363Z,8.20
2019-06-15T02:55:50.621Z,4.80
2019-06-15T02:58:13.945Z,5.30
2019-06-15T03:01:02.046Z,4.60
2019-06-15T03:03:30.483Z,7.03
2019-06-15T03:05:59.287Z,7.07
2019-06-15T03:08:27.717Z,9.40
2019-06-15T03:10:56.213Z,8.33
2019-06-15T03:13:24.659Z,10.50
2019-06-15T03:15:53.088Z,8.60
2019-06-15T03:18:21.541Z,4.70
2019-06-15T03:20:49.981Z,5.30
2019-06-15T03:23:18.466Z,6.60
2019-06-15T03:25:46.915Z,5.97
2019-06-15T03:28:15.346Z,5.80
2019-06-15T03:30:43.784Z,6.77
2019-06-15T03:33:12.221Z,12.43
2019-06-15T03:35:40.663Z,8.43
2019-06-15T03:38:09.082Z,5.63
2019-06-15T03:40:37.553Z,7.00
2019-06-15T03:43:06.041Z,9.50
2019-06-15T03:45:34.481Z,7.40
2019-06-15T03:48:02.921Z,11.10
2019-06-15T03:50:31.425Z,10.80
2019-06-15T03:52:59.894Z,6.70
2019-06-15T03:55:28.334Z,6.20
2019-06-15T03:57:56.782Z,9.90
2019-06-15T04:00:46.322Z,5.73
2019-06-15T04:03:15.294Z,8.57
2019-06-15T04:05:44.289Z,6.50
2019-06-15T04:08:12.719Z,8.37
2019-06-15T04:10:41.441Z,10.47
2019-06-15T04:13:10.112Z,6.90
2019-06-15T04:15:38.546Z,6.50
2019-06-15T04:18:06.981Z,21.23
2019-06-15T04:20:35.454Z,10.73
2019-06-15T04:23:04.159Z,7.60
2019-06-15T04:25:32.577Z,10.37
2019-06-15T04:28:01.093Z,11.30
2019-06-15T04:30:29.522Z,11.83
2019-06-15T04:32:57.964Z,7.90
2019-06-15T04:35:26.385Z,11.63
2019-06-15T04:37:54.827Z,12.60
2019-06-15T04:40:23.262Z,14.03
2019-06-15T04:42:51.694Z,12.00
2019-06-15T04:45:20.130Z,9.40
2019-06-15T04:47:48.563Z,15.73
2019-06-15T04:50:17.134Z,13.37
2019-06-15T04:52:45.616Z,12.33
2019-06-15T04:55:14.606Z,18.20
2019-06-15T04:57:43.143Z,14.73
2019-06-15T05:00:12.330Z,15.77
2019-06-15T05:02:40.766Z,12.87
2019-06-15T05:05:09.360Z,11.67
2019-06-15T05:07:37.810Z,13.83
2019-06-15T05:10:06.893Z,9.73
2019-06-15T05:12:35.832Z,14.17
2019-06-15T05:15:06.210Z,12.90
2019-06-15T05:17:34.641Z,12.07
2019-06-15T05:20:03.953Z,11.97
2019-06-15T05:22:32.389Z,11.67
2019-06-15T05:25:00.840Z,14.33
2019-06-15T05:27:30.429Z,13.37
2019-06-15T05:29:58.870Z,21.03
2019-06-15T05:32:27.390Z,14.67
2019-06-15T05:34:55.826Z,22.53
2019-06-15T05:37:24.264Z,14.50
2019-06-15T05:39:52.707Z,18.93
2019-06-15T05:42:21.510Z,13.80
2019-06-15T05:44:50.038Z,17.80
2019-06-15T05:47:18.470Z,18.37
2019-06-15T05:49:46.914Z,18.73
2019-06-15T05:52:15.350Z,19.90
2019-06-15T05:54:43.816Z,20.87
2019-06-15T05:57:21.246Z,19.10
2019-06-15T05:59:42.578Z,17.73
2019-06-15T06:02:11.015Z,23.27
2019-06-15T06:04:39.454Z,23.67
2019-06-15T06:07:08.006Z,21.30
2019-06-15T06:09:36.454Z,20.30
2019-06-15T06:12:05.154Z,23.53
2019-06-15T06:14:33.678Z,17.90
2019-06-15T06:17:02.106Z,27.00
2019-06-15T06:19:30.548Z,22.67
2019-06-15T06:21:58.986Z,29.50
2019-06-15T06:24:27.445Z,25.43
2019-06-15T06:26:55.874Z,21.47
2019-06-15T06:29:24.323Z,22.07
2019-06-15T06:31:52.757Z,22.23
2019-06-15T06:34:21.212Z,20.03
2019-06-15T06:36:49.640Z,25.73
2019-06-15T06:39:18.223Z,23.20
2019-06-15T06:41:46.662Z,25.37
2019-06-15T06:44:15.102Z,24.93
2019-06-15T06:46:43.551Z,19.10
2019-06-15T06:49:11.993Z,21.83
2019-06-15T06:51:40.442Z,35.13
2019-06-15T06:54:08.879Z,24.30
2019-06-15T06:56:37.399Z,24.03
2019-06-15T06:59:05.823Z,25.03
2019-06-15T07:01:34.274Z,27.23
2019-06-15T07:04:02.744Z,29.10
2019-06-15T07:06:31.242Z,30.53
2019-06-15T07:08:59.674Z,27.50
2019-06-15T07:11:28.120Z,19.37
2019-06-15T07:13:56.548Z,24.47
2019-06-15T07:16:24.998Z,23.03
2019-06-15T07:18:53.426Z,20.10
2019-06-15T07:21:21.916Z,14.80
2019-06-15T07:23:50.383Z,19.53
2019-06-15T07:26:18.827Z,20.73
2019-06-15T07:28:47.322Z,15.50
2019-06-15T07:31:15.805Z,18.60
2019-06-15T07:33:44.268Z,15.30
2019-06-15T07:36:12.757Z,15.87
2019-06-15T07:38:41.225Z,20.00
2019-06-15T07:41:09.664Z,22.83
2019-06-15T07:43:38.092Z,18.30
2019-06-15T07:46:06.529Z,20.50
2019-06-15T07:48:34.963Z,16.77
2019-06-15T07:51:03.593Z,26.13
2019-06-15T07:53:32.035Z,20.60
2019-06-15T07:56:01.029Z,18.63
2019-06-15T07:58:29.476Z,28.50
2019-06-15T08:00:57.905Z,29.90
2019-06-15T08:03:26.358Z,28.73
2019-06-15T08:05:54.783Z,21.47
2019-06-15T08:08:23.492Z,21.27
2019-06-15T08:10:51.986Z,18.37
2019-06-15T08:13:20.434Z,23.53
2019-06-15T08:15:48.865Z,21.80
2019-06-15T08:18:17.305Z,17.97
2019-06-15T08:20:45.747Z,21.23
2019-06-15T08:23:14.187Z,33.67
2019-06-15T08:25:42.621Z,26.70
2019-06-15T08:28:11.133Z,21.53
2019-06-15T08:30:43.721Z,30.97
2019-06-15T08:33:12.802Z,28.30
2019-06-15T08:35:41.239Z,22.80
2019-06-15T08:38:09.755Z,26.13
2019-06-15T08:40:38.212Z,20.03
2019-06-15T08:43:06.707Z,23.17
2019-06-15T08:45:35.138Z,24.93
2019-06-15T08:48:03.953Z,20.97
2019-06-15T08:50:32.394Z,17.93
2019-06-15T08:53:01.026Z,19.90
2019-06-15T08:55:29.460Z,20.30
2019-06-15T08:57:57.969Z,27.20
2019-06-15T09:00:26.901Z,20.67
2019-06-15T09:02:55.330Z,22.50
2019-06-15T09:05:23.782Z,25.87
2019-06-15T09:07:52.216Z,20.97
2019-06-15T09:10:20.657Z,16.20
2019-06-15T09:12:49.099Z,28.07
2019-06-15T09:15:20.730Z,30.83
2019-06-15T09:17:50.701Z,17.60
2019-06-15T09:20:19.141Z,16.93
2019-06-15T09:22:47.578Z,20.07
2019-06-15T09:25:16.034Z,20.97
2019-06-15T09:27:44.468Z,22.07
2019-06-15T09:30:13.182Z,21.50
2019-06-15T09:32:41.621Z,16.70
2019-06-15T09:35:10.326Z,12.83
2019-06-15T09:37:38.762Z,15.50
2019-06-15T09:40:09.926Z,15.00
2019-06-15T09:42:38.355Z,18.40
2019-06-15T09:45:08.603Z,12.33
2019-06-15T09:47:37.046Z,14.87
2019-06-15T09:50:06.618Z,22.40
2019-06-15T09:52:35.057Z,13.47
2019-06-15T09:55:05.238Z,18.23
2019-06-15T09:57:33.692Z,15.80
2019-06-15T10:00:02.963Z,11.40
2019-06-15T10:02:31.538Z,16.00
2019-06-15T10:04:59.986Z,12.40
2019-06-15T10:07:28.409Z,15.33
2019-06-15T10:09:56.838Z,16.43
2019-06-15T10:12:25.274Z,11.43
2019-06-15T10:14:53.715Z,20.73
2019-06-15T10:17:22.586Z,21.73
2019-06-15T10:19:51.029Z,21.77
2019-06-15T10:22:19.495Z,10.73
2019-06-15T10:24:48.248Z,9.03
2019-06-15T10:27:16.922Z,14.03
2019-06-15T10:29:45.352Z,11.60
2019-06-15T10:32:13.805Z,16.03
2019-06-15T10:34:42.289Z,15.53
2019-06-15T10:37:10.812Z,23.00
2019-06-15T10:39:39.322Z,12.93
2019-06-15T10:42:08.059Z,18.43
2019-06-15T10:44:36.578Z,14.80
2019-06-15T10:47:05.021Z,25.43
2019-06-15T10:49:33.518Z,17.77
2019-06-15T10:52:01.977Z,19.10
2019-06-15T10:54:30.466Z,26.23
2019-06-15T10:56:58.906Z,14.90
2019-06-15T10:59:27.344Z,19.50
2019-06-15T11:01:56.330Z,19.30
2019-06-15T11:04:24.782Z,20.17
2019-06-15T11:06:53.290Z,19.63
2019-06-15T11:09:21.714Z,20.40
2019-06-15T11:11:50.158Z,18.47
2019-06-15T11:14:18.584Z,11.93
2019-06-15T11:16:47.319Z,17.30
2019-06-15T11:19:15.804Z,16.90
2019-06-15T11:21:44.364Z,22.90
2019-06-15T11:24:12.862Z,7.63
2019-06-15T11:26:42.181Z,16.73
2019-06-15T11:29:26.114Z,13.70
2019-06-15T11:31:42.722Z,19.27
2019-06-15T11:34:11.199Z,20.83
2019-06-15T11:36:39.660Z,16.00
2019-06-15T11:39:08.742Z,37.63
2019-06-15T11:41:37.181Z,21.73
2019-06-15T11:44:05.953Z,20.67
2019-06-15T11:46:34.381Z,13.50
2019-06-15T11:49:03.166Z,28.67
2019-06-15T11:51:31.593Z,14.40
2019-06-15T11:54:00.042Z,14.10
2019-06-15T11:56:28.507Z,19.83
2019-06-15T11:58:56.950Z,23.57
2019-06-15T12:01:25.387Z,16.97
2019-06-15T12:03:53.834Z,21.40
2019-06-15T12:06:22.266Z,21.77
2019-06-15T12:08:50.750Z,15.80
2019-06-15T12:11:19.515Z,24.40
2019-06-15T12:13:47.962Z,14.20
2019-06-15T12:16:16.393Z,14.43
2019-06-15T12:18:44.837Z,17.40
2019-06-15T12:21:13.287Z,16.73
2019-06-15T12:23:41.733Z,43.07
2019-06-15T12:26:10.165Z,15.73
2019-06-15T12:28:38.868Z,19.13
2019-06-15T12:31:07.446Z,27.17
2019-06-15T12:33:35.888Z,19.23
2019-06-15T12:36:18.279Z,19.70
2019-06-15T12:38:34.698Z,23.00
2019-06-15T12:41:03.213Z,29.47
2019-06-15T12:43:31.659Z,19.60
2019-06-15T12:46:00.177Z,19.67
2019-06-15T12:48:28.615Z,18.47
2019-06-15T12:50:57.061Z,20.70
2019-06-15T12:53:25.514Z,19.20
2019-06-15T12:55:53.967Z,19.00
2019-06-15T12:58:22.393Z,34.13
2019-06-15T13:01:02.785Z,19.57
2019-06-15T13:03:33.142Z,26.87
2019-06-15T13:06:01.594Z,19.37
2019-06-15T13:08:30.034Z,19.00
2019-06-15T13:10:58.479Z,20.23
2019-06-15T13:13:29.997Z,22.10
2019-06-15T13:15:58.452Z,22.57
2019-06-15T13:18:26.960Z,21.70
2019-06-15T13:20:55.397Z,26.47
2019-06-15T13:23:23.882Z,38.23
2019-06-15T13:25:52.326Z,33.00
2019-06-15T13:28:20.762Z,40.10
2019-06-15T13:30:49.582Z,36.67
2019-06-15T13:33:18.066Z,45.33
2019-06-15T13:35:46.521Z,34.90
2019-06-15T13:38:15.008Z,32.63
2019-06-15T13:40:43.512Z,32.03
2019-06-15T13:43:12.198Z,40.60
2019-06-15T13:45:40.987Z,39.97
2019-06-15T13:48:11.656Z,40.57
2019-06-15T13:50:39.605Z,48.33
2019-06-15T13:53:08.041Z,34.50
2019-06-15T13:55:36.512Z,43.03
2019-06-15T13:58:04.944Z,34.67
2019-06-15T14:00:33.610Z,36.70
2019-06-15T14:03:02.105Z,36.00
2019-06-15T14:05:30.539Z,32.57
2019-06-15T14:07:58.977Z,32.63
2019-06-15T14:10:27.413Z,31.33
2019-06-15T14:12:55.858Z,33.77
2019-06-15T14:15:24.309Z,34.30
2019-06-15T14:17:52.827Z,33.13
2019-06-15T14:20:21.288Z,28.90
2019-06-15T14:22:49.805Z,26.90
2019-06-15T14:25:18.256Z,28.23
2019-06-15T14:27:46.757Z,26.10
2019-06-15T14:30:15.556Z,23.97
2019-06-15T14:32:44.397Z,18.73
2019-06-15T14:35:13.117Z,19.40
2019-06-15T14:37:41.570Z,23.73
2019-06-15T14:40:12.021Z,13.77
2019-06-15T14:42:40.458Z,11.37
2019-06-15T14:45:10.873Z,14.80
2019-06-15T14:47:39.386Z,11.87
2019-06-15T14:50:08.278Z,13.30
2019-06-15T14:52:36.771Z,13.50
2019-06-15T14:55:07.255Z,10.60
2019-06-15T14:57:36.192Z,13.43
2019-06-15T15:00:08.945Z,12.83
2019-06-15T15:02:37.242Z,16.67
2019-06-15T15:05:09.014Z,10.77
2019-06-15T15:07:37.461Z,10.70
2019-06-15T15:10:08.214Z,16.37
2019-06-15T15:12:37.144Z,9.87
2019-06-15T15:15:08.650Z,10.70
2019-06-15T15:17:37.362Z,7.73
2019-06-15T15:20:07.355Z,9.23
2019-06-15T15:22:37.111Z,7.63
2019-06-15T15:25:07.058Z,9.73
2019-06-15T15:27:37.506Z,6.57
2019-06-15T15:30:07.946Z,6.20
2019-06-15T15:32:57.088Z,6.97
2019-06-15T15:35:26.878Z,7.50
2019-06-15T15:37:56.742Z,8.50
2019-06-15T15:40:27.480Z,6.63
2019-06-15T15:42:56.273Z,7.40
2019-06-15T15:45:26.289Z,4.77
2019-06-15T15:47:55.012Z,9.93
2019-06-15T15:50:26.070Z,5.03
2019-06-15T15:52:53.950Z,3.00
2019-06-15T15:55:22.412Z,13.10
2019-06-15T15:57:50.907Z,7.07
2019-06-15T16:00:38.852Z,5.57
2019-06-15T16:03:07.411Z,6.93
2019-06-15T16:05:37.096Z,7.93
2019-06-15T16:08:06.721Z,6.50
2019-06-15T16:10:37.335Z,60.17
2019-06-15T16:13:06.456Z,4.90
2019-06-15T16:15:37.296Z,11.23
2019-06-15T16:18:06.739Z,8.30
2019-06-15T16:20:37.086Z,5.20
2019-06-15T16:23:07.506Z,8.20
2019-06-15T16:25:37.194Z,6.20
2019-06-15T16:28:07.036Z,5.67
2019-06-15T16:31:00.670Z,3.73
2019-06-15T16:33:07.645Z,5.67
2019-06-15T16:35:36.924Z,5.67
2019-06-15T16:38:07.019Z,6.50
2019-06-15T16:40:39.493Z,6.67
2019-06-15T16:43:07.998Z,7.50
2019-06-15T16:45:37.524Z,5.67
2019-06-15T16:48:06.593Z,4.67
2019-06-15T16:50:36.603Z,10.60
2019-06-15T16:53:06.122Z,15.60
2019-06-15T16:55:36.801Z,6.60
2019-06-15T16:58:07.114Z,8.70
2019-06-15T17:00:36.319Z,6.00
2019-06-15T17:03:19.740Z,6.70
2019-06-15T17:05:36.335Z,6.23
2019-06-15T17:08:06.962Z,7.80
2019-06-15T17:10:39.838Z,9.93
2019-06-15T17:13:08.402Z,9.67
2019-06-15T17:15:37.417Z,11.27
2019-06-15T17:18:06.394Z,13.40
2019-06-15T17:20:46.662Z,7.37
2019-06-15T17:23:16.433Z,7.43
2019-06-15T17:25:45.080Z,12.50
2019-06-15T17:28:14.073Z,11.33
2019-06-15T17:30:43.990Z,10.70
2019-06-15T17:33:12.474Z,17.43
2019-06-15T17:35:55.047Z,9.33
2019-06-15T17:38:11.073Z,9.30
2019-06-15T17:40:39.514Z,10.50
2019-06-15T17:43:07.989Z,11.63
2019-06-15T17:45:37.534Z,10.40
2019-06-15T17:48:06.687Z,10.13
2019-06-15T17:50:37.823Z,7.03
2019-06-15T17:53:07.020Z,7.57
2019-06-15T17:55:36.969Z,10.50
2019-06-15T17:58:06.692Z,9.43
2019-06-15T18:00:43.248Z,4.87
2019-06-15T18:03:12.832Z,4.20
2019-06-15T18:05:41.570Z,4.13
2019-06-15T18:08:11.510Z,5.73
2019-06-15T18:10:40.026Z,3.30
2019-06-15T18:13:08.834Z,3.27
2019-06-15T18:15:37.549Z,6.67
2019-06-15T18:18:07.098Z,5.83
2019-06-15T18:20:36.535Z,7.53
2019-06-15T18:23:06.014Z,7.03
2019-06-15T18:25:37.055Z,7.70
2019-06-15T18:28:06.381Z,3.07
2019-06-15T18:30:37.093Z,4.87
2019-06-15T18:33:07.103Z,6.00
2019-06-15T18:35:36.246Z,3.80
2019-06-15T18:38:07.218Z,12.53
2019-06-15T18:40:37.162Z,6.63
2019-06-15T18:43:07.330Z,3.07
2019-06-15T18:45:36.220Z,3.70
2019-06-15T18:48:06.225Z,5.40
2019-06-15T18:50:42.168Z,3.70
2019-06-15T18:53:10.737Z,4.43
2019-06-15T18:55:39.167Z,4.33
2019-06-15T18:58:07.589Z,13.03
2019-06-15T19:00:37.123Z,3.10
2019-06-15T19:03:07.020Z,4.43
2019-06-15T19:05:37.340Z,2.40
2019-06-15T19:08:06.984Z,3.07
2019-06-15T19:10:37.012Z,2.17
2019-06-15T19:13:07.535Z,3.50
2019-06-15T19:15:37.702Z,3.30
2019-06-15T19:18:07.463Z,4.30
2019-06-15T19:20:37.356Z,1.73
2019-06-15T19:23:07.138Z,7.23
2019-06-15T19:25:36.470Z,5.10
2019-06-15T19:28:05.812Z,10.53
2019-06-15T19:30:37.135Z,5.07
2019-06-15T19:33:05.602Z,2.70
2019-06-15T19:35:36.270Z,2.57
2019-06-15T19:38:06.255Z,12.03
2019-06-15T19:40:37.710Z,1.80
2019-06-15T19:43:06.573Z,3.50
2019-06-15T19:45:37.035Z,3.07
2019-06-15T19:48:06.646Z,1.80
2019-06-15T19:50:36.238Z,2.10
2019-06-15T19:53:06.963Z,4.43
2019-06-15T19:55:36.310Z,2.97
2019-06-15T19:58:07.344Z,8.80
2019-06-15T20:00:36.566Z,5.73
2019-06-15T20:03:07.096Z,4.90
2019-06-15T20:05:37.066Z,6.03
2019-06-15T20:08:06.978Z,2.33
2019-06-15T20:10:36.989Z,3.80
2019-06-15T20:13:07.204Z,4.97
2019-06-15T20:15:37.707Z,6.33
2019-06-15T20:18:06.963Z,4.70
2019-06-15T20:20:37.014Z,4.30
2019-06-15T20:23:07.205Z,4.03
2019-06-15T20:25:36.906Z,4.40
2019-06-15T20:28:07.149Z,5.07
2019-06-15T20:30:37.184Z,1.60
2019-06-15T20:33:07.995Z,3.13
2019-06-15T20:35:36.416Z,2.20
2019-06-15T20:38:04.909Z,6.23
2019-06-15T20:40:33.337Z,3.37
2019-06-15T20:43:01.791Z,6.50
2019-06-15T20:45:31.569Z,2.37
2019-06-15T20:48:00.453Z,1.83
2019-06-15T20:50:28.956Z,3.37
2019-06-15T20:52:58.000Z,3.53
2019-06-15T20:55:26.728Z,2.43
2019-06-15T20:57:56.810Z,3.90
2019-06-15T21:00:26.381Z,2.57
2019-06-15T21:02:56.258Z,3.47
2019-06-15T21:05:34.736Z,1.50
2019-06-15T21:07:57.670Z,4.40
2019-06-15T21:10:26.432Z,3.00
2019-06-15T21:12:55.424Z,2.77
2019-06-15T21:15:26.990Z,8.40
2019-06-15T21:17:57.092Z,2.67
2019-06-15T21:20:26.758Z,5.60
2019-06-15T21:22:57.239Z,3.27
2019-06-15T21:25:26.491Z,4.10
2019-06-15T21:27:56.775Z,2.83
2019-06-15T21:30:27.128Z,5.13
2019-06-15T21:32:56.039Z,5.93
2019-06-15T21:35:26.842Z,9.00
2019-06-15T21:37:57.224Z,2.90
2019-06-15T21:40:27.318Z,3.20
2019-06-15T21:42:56.271Z,2.50
2019-06-15T21:45:25.021Z,5.13
2019-06-15T21:47:55.879Z,4.50
2019-06-15T21:50:23.630Z,4.00
2019-06-15T21:52:52.201Z,3.67
2019-06-15T21:55:20.614Z,5.70
2019-06-15T21:57:49.722Z,5.93
2019-06-15T22:00:29.697Z,10.70
2019-06-15T22:03:01.361Z,2.80
2019-06-15T22:05:28.286Z,2.57
2019-06-15T22:07:56.894Z,10.10
2019-06-15T22:10:26.537Z,4.00
2019-06-15T22:12:57.202Z,6.37
2019-06-15T22:15:26.592Z,6.10
2019-06-15T22:17:55.174Z,3.10
2019-06-15T22:20:23.618Z,33.10
2019-06-15T22:22:53.780Z,6.67
2019-06-15T22:25:22.373Z,7.23
2019-06-15T22:27:50.514Z,7.20
2019-06-15T22:30:18.941Z,3.00
2019-06-15T22:32:47.463Z,3.43
2019-06-15T22:35:16.486Z,5.33
2019-06-15T22:37:46.806Z,2.47
2019-06-15T22:40:16.658Z,4.27
2019-06-15T22:42:47.018Z,4.73
2019-06-15T22:45:17.333Z,6.20
2019-06-15T22:47:46.798Z,2.87
2019-06-15T22:50:16.139Z,5.87
2019-06-15T22:52:47.174Z,11.23
2019-06-15T22:55:16.562Z,7.17
2019-06-15T22:57:46.153Z,7.47
2019-06-15T23:00:17.118Z,4.67
2019-06-15T23:02:46.149Z,7.30
2019-06-15T23:05:17.141Z,6.47
2019-06-15T23:07:47.183Z,6.23
2019-06-15T23:10:16.656Z,5.40
2019-06-15T23:12:46.405Z,6.90
2019-06-15T23:15:17.467Z,6.40
2019-06-15T23:17:46.683Z,4.00
2019-06-15T23:20:17.092Z,7.57
2019-06-15T23:22:46.792Z,6.23
2019-06-15T23:25:16.751Z,2.63
2019-06-15T23:27:46.960Z,5.97
2019-06-15T23:30:16.337Z,4.60
2019-06-15T23:32:46.905Z,7.60
2019-06-15T23:35:16.842Z,6.20
2019-06-15T23:37:46.468Z,4.30
2019-06-15T23:40:18.978Z,5.60
2019-06-15T23:42:48.870Z,3.30
2019-06-15T23:45:18.744Z,9.93
2019-06-15T23:47:47.518Z,5.37
2019-06-15T23:50:17.981Z,3.97
2019-06-15T23:52:49.126Z,3.20
2019-06-15T23:55:19.707Z,3.20
2019-06-15T23:57:48.137Z,9.33
